This is the latest recevied weather packets stored in our database for station/object K7GFH-13. If no packets are shown the sender has not sent any weather packets the latest 10 day(s).
| Time | Temp. | Humidity | Pressure | Rain* | Wind** | Luminosity | Snow |
|---|---|---|---|---|---|---|---|
| 1777528485 | 13.33° C | 69% | 1021.7 hPa | 0 mm | - | 0 W/m² | - |
| 1777527581 | 13.33° C | 70% | 1021.9 hPa | 0 mm | - | 0 W/m² | - |
| 1777526679 | 13.89° C | 70% | 1021.9 hPa | 0 mm | - | 0 W/m² | - |
| 1777525778 | 13.89° C | 70% | 1021.9 hPa | 0 mm | - | 0 W/m² | - |
| 1777524874 | 14.44° C | 69% | 1022.1 hPa | 0 mm | - | 0 W/m² | - |
| 1777523971 | 14.44° C | 69% | 1022 hPa | 0 mm | - | 0 W/m² | - |
| 1777523066 | 14.44° C | 68% | 1022 hPa | 0 mm | - | 0 W/m² | - |
| 1777522163 | 15° C | 67% | 1021.7 hPa | 0 mm | - | 0 W/m² | - |
| 1777521259 | 15° C | 67% | 1021.6 hPa | 0 mm | - | 0 W/m² | - |
| 1777520355 | 17.22° C | 58% | 1021.5 hPa | 0 mm | - | 0 W/m² | - |
| 1777519453 | 16.67° C | 60% | 1021.4 hPa | 0 mm | - | 1 W/m² | - |
| 1777518552 | 18.33° C | 55% | 1021.2 hPa | 0 mm | - | 5 W/m² | - |
| 1777517648 | 20° C | 49% | 1021.3 hPa | 0 mm | - | 14 W/m² | - |
| 1777516746 | 20.56° C | 47% | 1021.3 hPa | 0 mm | - | 23 W/m² | - |
| 1777515841 | 20.56° C | 46% | 1021.3 hPa | 0 mm | - | 31 W/m² | - |
| 1777514936 | 21.11° C | 46% | 1021.4 hPa | 0 mm | - | 42 W/m² | - |
| 1777514032 | 20.56° C | 46% | 1021.5 hPa | 0 mm | - | 72 W/m² | - |
| 1777513129 | 20.56° C | 45% | 1021.6 hPa | 0 mm | - | 78 W/m² | - |
| 1777509518 | 20.56° C | 45% | 1022 hPa | 0 mm | - | 274 W/m² | - |
| 1777507712 | 20.56° C | 45% | 1021.8 hPa | 0 mm | - | 358 W/m² | - |
| 1777502292 | 18.89° C | 48% | 1022.9 hPa | 0 mm | - | 576 W/m² | - |
| 1777501389 | 18.89° C | 49% | 1023.3 hPa | 0 mm | - | 600 W/m² | - |
| 1777500487 | 17.78° C | 52% | 1023.1 hPa | 0 mm | - | 625 W/m² | - |
| 1777498679 | 17.78° C | 53% | 1023.5 hPa | 0 mm | - | 667 W/m² | - |
| 1777496871 | 17.22° C | 53% | 1023.8 hPa | 0 mm | - | 694 W/m² | - |
* Rain latest hour (hover to see other rain measurements)
** Current wind speed in m/s (hover to see current wind gust speed)